sensor_id;sensor_type;location;lat;lon;timestamp;temperature;humidity
6863;DHT22;3470;48.738;9.616;2022-12-10T00:03:38;0.70;99.90
6863;DHT22;3470;48.738;9.616;2022-12-10T00:06:07;0.70;99.90
6863;DHT22;3470;48.738;9.616;2022-12-10T00:08:34;0.70;99.90
6863;DHT22;3470;48.738;9.616;2022-12-10T00:11:02;0.70;99.90
6863;DHT22;3470;48.738;9.616;2022-12-10T00:13:27;0.70;99.90
6863;DHT22;3470;48.738;9.616;2022-12-10T00:15:53;0.70;99.90
6863;DHT22;3470;48.738;9.616;2022-12-10T00:18:18;0.70;99.90
6863;DHT22;3470;48.738;9.616;2022-12-10T00:20:44;0.70;99.90
6863;DHT22;3470;48.738;9.616;2022-12-10T00:23:10;0.70;99.90
6863;DHT22;3470;48.738;9.616;2022-12-10T00:25:35;0.70;99.90
6863;DHT22;3470;48.738;9.616;2022-12-10T00:28:01;0.60;99.90
6863;DHT22;3470;48.738;9.616;2022-12-10T00:30:26;0.60;99.90
6863;DHT22;3470;48.738;9.616;2022-12-10T00:32:52;0.60;99.90
6863;DHT22;3470;48.738;9.616;2022-12-10T00:35:17;0.60;99.90
6863;DHT22;3470;48.738;9.616;2022-12-10T00:37:43;0.60;99.90
6863;DHT22;3470;48.738;9.616;2022-12-10T00:40:09;0.60;99.90
6863;DHT22;3470;48.738;9.616;2022-12-10T00:42:36;0.60;99.90
6863;DHT22;3470;48.738;9.616;2022-12-10T00:45:03;0.60;99.90
6863;DHT22;3470;48.738;9.616;2022-12-10T00:47:29;0.60;99.90
6863;DHT22;3470;48.738;9.616;2022-12-10T00:49:54;0.60;99.90
6863;DHT22;3470;48.738;9.616;2022-12-10T00:52:20;0.60;99.90
6863;DHT22;3470;48.738;9.616;2022-12-10T00:54:45;0.60;99.90
6863;DHT22;3470;48.738;9.616;2022-12-10T00:57:11;0.60;99.90
6863;DHT22;3470;48.738;9.616;2022-12-10T00:59:36;0.60;99.90
6863;DHT22;3470;48.738;9.616;2022-12-10T01:02:02;0.60;99.90
6863;DHT22;3470;48.738;9.616;2022-12-10T01:04:28;0.60;99.90
6863;DHT22;3470;48.738;9.616;2022-12-10T01:06:54;0.60;99.90
6863;DHT22;3470;48.738;9.616;2022-12-10T01:09:25;0.60;99.90
6863;DHT22;3470;48.738;9.616;2022-12-10T01:11:52;0.60;99.90
6863;DHT22;3470;48.738;9.616;2022-12-10T01:14:30;0.60;99.90
6863;DHT22;3470;48.738;9.616;2022-12-10T01:16:58;0.60;99.90
6863;DHT22;3470;48.738;9.616;2022-12-10T01:19:25;0.60;99.90
6863;DHT22;3470;48.738;9.616;2022-12-10T01:21:52;0.60;99.90
6863;DHT22;3470;48.738;9.616;2022-12-10T01:24:19;0.60;99.90
6863;DHT22;3470;48.738;9.616;2022-12-10T01:26:44;0.60;99.90
6863;DHT22;3470;48.738;9.616;2022-12-10T01:29:11;0.60;99.90
6863;DHT22;3470;48.738;9.616;2022-12-10T01:31:38;0.60;99.90
6863;DHT22;3470;48.738;9.616;2022-12-10T01:34:05;0.60;99.90
6863;DHT22;3470;48.738;9.616;2022-12-10T01:36:34;0.60;99.90
6863;DHT22;3470;48.738;9.616;2022-12-10T01:39:01;0.50;99.90
6863;DHT22;3470;48.738;9.616;2022-12-10T01:41:33;0.50;99.90
6863;DHT22;3470;48.738;9.616;2022-12-10T01:46:50;0.50;99.90
6863;DHT22;3470;48.738;9.616;2022-12-10T01:49:18;0.50;99.90
6863;DHT22;3470;48.738;9.616;2022-12-10T01:51:46;0.50;99.90
6863;DHT22;3470;48.738;9.616;2022-12-10T01:54:23;0.50;99.90
6863;DHT22;3470;48.738;9.616;2022-12-10T01:56:59;0.50;99.90
6863;DHT22;3470;48.738;9.616;2022-12-10T01:59:25;0.50;99.90
6863;DHT22;3470;48.738;9.616;2022-12-10T02:13:14;0.50;99.90
6863;DHT22;3470;48.738;9.616;2022-12-10T02:16:04;0.50;99.90
6863;DHT22;3470;48.738;9.616;2022-12-10T02:18:38;0.50;99.90
6863;DHT22;3470;48.738;9.616;2022-12-10T02:21:13;0.50;99.90
6863;DHT22;3470;48.738;9.616;2022-12-10T02:23:43;0.50;99.90
6863;DHT22;3470;48.738;9.616;2022-12-10T02:26:22;0.50;99.90
6863;DHT22;3470;48.738;9.616;2022-12-10T02:31:33;0.60;99.90
6863;DHT22;3470;48.738;9.616;2022-12-10T02:34:01;0.60;99.90
6863;DHT22;3470;48.738;9.616;2022-12-10T02:36:32;0.60;99.90
6863;DHT22;3470;48.738;9.616;2022-12-10T02:39:02;0.60;99.90
6863;DHT22;3470;48.738;9.616;2022-12-10T02:41:33;0.60;99.90
6863;DHT22;3470;48.738;9.616;2022-12-10T02:44:02;0.60;99.90
6863;DHT22;3470;48.738;9.616;2022-12-10T02:46:29;0.60;99.90
6863;DHT22;3470;48.738;9.616;2022-12-10T02:48:55;0.60;99.90
6863;DHT22;3470;48.738;9.616;2022-12-10T02:51:21;0.50;99.90
6863;DHT22;3470;48.738;9.616;2022-12-10T02:53:47;0.50;99.90
6863;DHT22;3470;48.738;9.616;2022-12-10T03:01:44;0.50;99.90
6863;DHT22;3470;48.738;9.616;2022-12-10T03:04:33;0.50;99.90
6863;DHT22;3470;48.738;9.616;2022-12-10T03:07:10;0.40;99.90
6863;DHT22;3470;48.738;9.616;2022-12-10T03:10:00;0.40;99.90
6863;DHT22;3470;48.738;9.616;2022-12-10T03:12:36;0.40;99.90
6863;DHT22;3470;48.738;9.616;2022-12-10T03:15:06;0.40;99.90
6863;DHT22;3470;48.738;9.616;2022-12-10T03:17:34;0.40;99.90
6863;DHT22;3470;48.738;9.616;2022-12-10T03:20:02;0.40;99.90
6863;DHT22;3470;48.738;9.616;2022-12-10T03:22:29;0.40;99.90
6863;DHT22;3470;48.738;9.616;2022-12-10T03:24:55;0.40;99.90
6863;DHT22;3470;48.738;9.616;2022-12-10T03:27:23;0.40;99.90
6863;DHT22;3470;48.738;9.616;2022-12-10T03:29:52;0.30;99.90
6863;DHT22;3470;48.738;9.616;2022-12-10T03:32:23;0.30;99.90
6863;DHT22;3470;48.738;9.616;2022-12-10T03:34:52;0.30;99.90
6863;DHT22;3470;48.738;9.616;2022-12-10T03:37:19;0.30;99.90
6863;DHT22;3470;48.738;9.616;2022-12-10T03:39:45;0.30;99.90
6863;DHT22;3470;48.738;9.616;2022-12-10T03:42:11;0.30;99.90
6863;DHT22;3470;48.738;9.616;2022-12-10T03:44:38;0.30;99.90
6863;DHT22;3470;48.738;9.616;2022-12-10T03:47:06;0.20;99.90
6863;DHT22;3470;48.738;9.616;2022-12-10T03:49:34;0.30;99.90
6863;DHT22;3470;48.738;9.616;2022-12-10T03:51:59;0.20;99.90
6863;DHT22;3470;48.738;9.616;2022-12-10T03:54:25;0.20;99.90
6863;DHT22;3470;48.738;9.616;2022-12-10T03:56:50;0.20;99.90
6863;DHT22;3470;48.738;9.616;2022-12-10T03:59:16;0.20;99.90
6863;DHT22;3470;48.738;9.616;2022-12-10T04:01:41;0.20;99.90
6863;DHT22;3470;48.738;9.616;2022-12-10T04:04:07;0.20;99.90
6863;DHT22;3470;48.738;9.616;2022-12-10T04:06:33;0.10;99.90
6863;DHT22;3470;48.738;9.616;2022-12-10T04:08:59;0.10;99.90
6863;DHT22;3470;48.738;9.616;2022-12-10T04:11:25;0.10;99.90
6863;DHT22;3470;48.738;9.616;2022-12-10T04:13:51;0.10;99.90
6863;DHT22;3470;48.738;9.616;2022-12-10T04:16:37;0.10;99.90
6863;DHT22;3470;48.738;9.616;2022-12-10T04:19:05;0.10;99.90
6863;DHT22;3470;48.738;9.616;2022-12-10T04:21:33;0.10;99.90
6863;DHT22;3470;48.738;9.616;2022-12-10T04:24:19;0.20;99.90
6863;DHT22;3470;48.738;9.616;2022-12-10T04:27:08;0.20;99.90
6863;DHT22;3470;48.738;9.616;2022-12-10T04:29:34;0.20;99.90
6863;DHT22;3470;48.738;9.616;2022-12-10T04:32:00;0.20;99.90
6863;DHT22;3470;48.738;9.616;2022-12-10T04:34:26;0.20;99.90
6863;DHT22;3470;48.738;9.616;2022-12-10T04:36:51;0.20;99.90
6863;DHT22;3470;48.738;9.616;2022-12-10T04:39:17;0.20;99.90
6863;DHT22;3470;48.738;9.616;2022-12-10T04:41:45;0.20;99.90
6863;DHT22;3470;48.738;9.616;2022-12-10T04:44:11;0.20;99.90
6863;DHT22;3470;48.738;9.616;2022-12-10T04:46:37;0.20;99.90
6863;DHT22;3470;48.738;9.616;2022-12-10T04:49:04;0.20;99.90
6863;DHT22;3470;48.738;9.616;2022-12-10T04:51:30;0.20;99.90
6863;DHT22;3470;48.738;9.616;2022-12-10T04:53:56;0.20;99.90
6863;DHT22;3470;48.738;9.616;2022-12-10T04:56:22;0.20;99.90
6863;DHT22;3470;48.738;9.616;2022-12-10T04:58:47;0.20;99.90
6863;DHT22;3470;48.738;9.616;2022-12-10T05:01:13;0.20;99.90
6863;DHT22;3470;48.738;9.616;2022-12-10T05:03:39;0.20;99.90
6863;DHT22;3470;48.738;9.616;2022-12-10T05:06:08;0.20;99.90
6863;DHT22;3470;48.738;9.616;2022-12-10T05:08:35;0.20;99.90
6863;DHT22;3470;48.738;9.616;2022-12-10T05:11:02;0.20;99.90
6863;DHT22;3470;48.738;9.616;2022-12-10T05:13:29;0.20;99.90
6863;DHT22;3470;48.738;9.616;2022-12-10T05:15:58;0.20;99.90
6863;DHT22;3470;48.738;9.616;2022-12-10T05:18:26;0.20;99.90
6863;DHT22;3470;48.738;9.616;2022-12-10T05:20:51;0.20;99.90
6863;DHT22;3470;48.738;9.616;2022-12-10T05:23:17;0.20;99.90
6863;DHT22;3470;48.738;9.616;2022-12-10T05:26:06;0.20;99.90
6863;DHT22;3470;48.738;9.616;2022-12-10T05:28:34;0.20;99.90
6863;DHT22;3470;48.738;9.616;2022-12-10T05:31:00;0.20;99.90
6863;DHT22;3470;48.738;9.616;2022-12-10T05:33:26;0.20;99.90
6863;DHT22;3470;48.738;9.616;2022-12-10T05:35:57;0.20;99.90
6863;DHT22;3470;48.738;9.616;2022-12-10T05:38:23;0.20;99.90
6863;DHT22;3470;48.738;9.616;2022-12-10T05:40:49;0.20;99.90
6863;DHT22;3470;48.738;9.616;2022-12-10T05:43:15;0.20;99.90
6863;DHT22;3470;48.738;9.616;2022-12-10T05:45:41;0.20;99.90
6863;DHT22;3470;48.738;9.616;2022-12-10T05:48:09;0.20;99.90
6863;DHT22;3470;48.738;9.616;2022-12-10T05:50:35;0.20;99.90
6863;DHT22;3470;48.738;9.616;2022-12-10T05:53:00;0.20;99.90
6863;DHT22;3470;48.738;9.616;2022-12-10T05:55:26;0.30;99.90
6863;DHT22;3470;48.738;9.616;2022-12-10T05:57:52;0.30;99.90
6863;DHT22;3470;48.738;9.616;2022-12-10T06:00:18;0.30;99.90
6863;DHT22;3470;48.738;9.616;2022-12-10T06:02:45;0.30;99.90
6863;DHT22;3470;48.738;9.616;2022-12-10T06:05:11;0.30;99.90
6863;DHT22;3470;48.738;9.616;2022-12-10T06:07:37;0.20;99.90
6863;DHT22;3470;48.738;9.616;2022-12-10T06:10:02;0.20;99.90
6863;DHT22;3470;48.738;9.616;2022-12-10T06:12:28;0.20;99.90
6863;DHT22;3470;48.738;9.616;2022-12-10T06:14:54;0.20;99.90
6863;DHT22;3470;48.738;9.616;2022-12-10T06:17:19;0.20;99.90
6863;DHT22;3470;48.738;9.616;2022-12-10T06:19:45;0.20;99.90
6863;DHT22;3470;48.738;9.616;2022-12-10T06:22:13;0.20;99.90
6863;DHT22;3470;48.738;9.616;2022-12-10T06:24:39;0.20;99.90
6863;DHT22;3470;48.738;9.616;2022-12-10T06:27:04;0.20;99.90
6863;DHT22;3470;48.738;9.616;2022-12-10T06:29:30;0.20;99.90
6863;DHT22;3470;48.738;9.616;2022-12-10T06:31:56;0.30;99.90
6863;DHT22;3470;48.738;9.616;2022-12-10T06:34:21;0.30;99.90
6863;DHT22;3470;48.738;9.616;2022-12-10T06:36:47;0.20;99.90
6863;DHT22;3470;48.738;9.616;2022-12-10T06:39:13;0.20;99.90
6863;DHT22;3470;48.738;9.616;2022-12-10T06:41:38;0.20;99.90
6863;DHT22;3470;48.738;9.616;2022-12-10T06:44:09;0.20;99.90
6863;DHT22;3470;48.738;9.616;2022-12-10T06:46:35;0.20;99.90
6863;DHT22;3470;48.738;9.616;2022-12-10T06:49:00;0.20;99.90
6863;DHT22;3470;48.738;9.616;2022-12-10T06:51:26;0.20;99.90
6863;DHT22;3470;48.738;9.616;2022-12-10T06:53:51;0.20;99.90
6863;DHT22;3470;48.738;9.616;2022-12-10T06:56:18;0.20;99.90
6863;DHT22;3470;48.738;9.616;2022-12-10T06:58:45;0.20;99.90
6863;DHT22;3470;48.738;9.616;2022-12-10T07:01:14;0.30;99.90
6863;DHT22;3470;48.738;9.616;2022-12-10T07:03:40;0.20;99.90
6863;DHT22;3470;48.738;9.616;2022-12-10T07:06:07;0.20;99.90
6863;DHT22;3470;48.738;9.616;2022-12-10T07:08:33;0.20;99.90
6863;DHT22;3470;48.738;9.616;2022-12-10T07:10:59;0.30;99.90
6863;DHT22;3470;48.738;9.616;2022-12-10T07:13:28;0.30;99.90
6863;DHT22;3470;48.738;9.616;2022-12-10T07:15:53;0.30;99.90
6863;DHT22;3470;48.738;9.616;2022-12-10T07:18:19;0.30;99.90
6863;DHT22;3470;48.738;9.616;2022-12-10T07:20:44;0.30;99.90
6863;DHT22;3470;48.738;9.616;2022-12-10T07:23:10;0.30;99.90
6863;DHT22;3470;48.738;9.616;2022-12-10T07:25:36;0.30;99.90
6863;DHT22;3470;48.738;9.616;2022-12-10T07:28:01;0.30;99.90
6863;DHT22;3470;48.738;9.616;2022-12-10T07:30:27;0.30;99.90
6863;DHT22;3470;48.738;9.616;2022-12-10T07:32:52;0.40;99.90
6863;DHT22;3470;48.738;9.616;2022-12-10T07:35:18;0.40;99.90
6863;DHT22;3470;48.738;9.616;2022-12-10T07:37:43;0.40;99.90
6863;DHT22;3470;48.738;9.616;2022-12-10T07:40:09;0.50;99.90
6863;DHT22;3470;48.738;9.616;2022-12-10T07:42:35;0.50;99.90
6863;DHT22;3470;48.738;9.616;2022-12-10T07:45:01;0.60;99.90
6863;DHT22;3470;48.738;9.616;2022-12-10T07:47:26;0.60;99.90
6863;DHT22;3470;48.738;9.616;2022-12-10T07:49:53;0.60;99.90
6863;DHT22;3470;48.738;9.616;2022-12-10T07:52:18;0.70;99.90
6863;DHT22;3470;48.738;9.616;2022-12-10T07:54:44;0.70;99.90
6863;DHT22;3470;48.738;9.616;2022-12-10T07:57:09;0.80;99.90
6863;DHT22;3470;48.738;9.616;2022-12-10T07:59:35;0.80;99.90
6863;DHT22;3470;48.738;9.616;2022-12-10T08:02:00;0.80;99.90
6863;DHT22;3470;48.738;9.616;2022-12-10T08:04:28;0.80;99.90
6863;DHT22;3470;48.738;9.616;2022-12-10T08:06:55;0.80;99.90
6863;DHT22;3470;48.738;9.616;2022-12-10T08:09:21;0.90;99.90
6863;DHT22;3470;48.738;9.616;2022-12-10T08:11:47;0.90;99.90
6863;DHT22;3470;48.738;9.616;2022-12-10T08:14:13;1.00;99.90
6863;DHT22;3470;48.738;9.616;2022-12-10T08:16:38;1.10;99.90
6863;DHT22;3470;48.738;9.616;2022-12-10T08:19:04;1.10;99.90
6863;DHT22;3470;48.738;9.616;2022-12-10T08:21:31;1.10;99.90
6863;DHT22;3470;48.738;9.616;2022-12-10T08:23:58;1.10;99.90
6863;DHT22;3470;48.738;9.616;2022-12-10T08:26:26;1.20;99.90
6863;DHT22;3470;48.738;9.616;2022-12-10T08:28:54;1.20;99.90
6863;DHT22;3470;48.738;9.616;2022-12-10T08:31:23;1.10;99.90
6863;DHT22;3470;48.738;9.616;2022-12-10T08:33:49;1.20;99.90
6863;DHT22;3470;48.738;9.616;2022-12-10T08:36:16;1.10;99.90
6863;DHT22;3470;48.738;9.616;2022-12-10T08:38:43;1.20;99.90
6863;DHT22;3470;48.738;9.616;2022-12-10T08:43:36;1.20;99.90
6863;DHT22;3470;48.738;9.616;2022-12-10T08:46:02;1.30;99.90
6863;DHT22;3470;48.738;9.616;2022-12-10T08:48:28;1.40;99.90
6863;DHT22;3470;48.738;9.616;2022-12-10T08:50:54;1.40;99.90
6863;DHT22;3470;48.738;9.616;2022-12-10T08:53:19;1.50;99.90
6863;DHT22;3470;48.738;9.616;2022-12-10T08:55:45;1.50;99.90
6863;DHT22;3470;48.738;9.616;2022-12-10T08:58:10;1.50;99.90
6863;DHT22;3470;48.738;9.616;2022-12-10T09:00:36;1.50;99.90
6863;DHT22;3470;48.738;9.616;2022-12-10T09:03:02;1.50;99.90
6863;DHT22;3470;48.738;9.616;2022-12-10T09:05:28;1.50;99.90
6863;DHT22;3470;48.738;9.616;2022-12-10T09:07:53;1.50;99.90
6863;DHT22;3470;48.738;9.616;2022-12-10T09:10:19;1.50;99.90
6863;DHT22;3470;48.738;9.616;2022-12-10T09:12:45;1.50;99.90
6863;DHT22;3470;48.738;9.616;2022-12-10T09:15:11;1.60;99.90
6863;DHT22;3470;48.738;9.616;2022-12-10T09:17:37;1.70;99.90
6863;DHT22;3470;48.738;9.616;2022-12-10T09:20:04;1.70;99.90
6863;DHT22;3470;48.738;9.616;2022-12-10T09:22:30;1.80;99.90
6863;DHT22;3470;48.738;9.616;2022-12-10T09:24:55;1.90;99.90
6863;DHT22;3470;48.738;9.616;2022-12-10T09:27:21;2.10;99.90
6863;DHT22;3470;48.738;9.616;2022-12-10T09:29:46;2.30;99.90
6863;DHT22;3470;48.738;9.616;2022-12-10T09:32:12;2.50;99.90
6863;DHT22;3470;48.738;9.616;2022-12-10T09:34:38;2.70;99.90
6863;DHT22;3470;48.738;9.616;2022-12-10T09:37:03;2.80;99.90
6863;DHT22;3470;48.738;9.616;2022-12-10T09:39:29;2.90;99.90
6863;DHT22;3470;48.738;9.616;2022-12-10T09:42:07;2.90;99.90
6863;DHT22;3470;48.738;9.616;2022-12-10T09:47:10;3.30;99.90
6863;DHT22;3470;48.738;9.616;2022-12-10T09:49:58;3.40;99.90
6863;DHT22;3470;48.738;9.616;2022-12-10T09:52:31;3.50;99.90
6863;DHT22;3470;48.738;9.616;2022-12-10T09:55:02;3.50;99.90
6863;DHT22;3470;48.738;9.616;2022-12-10T09:57:33;3.40;99.90
6863;DHT22;3470;48.738;9.616;2022-12-10T10:00:04;3.70;99.90
6863;DHT22;3470;48.738;9.616;2022-12-10T10:02:32;3.80;99.90
6863;DHT22;3470;48.738;9.616;2022-12-10T10:07:44;3.80;99.90
6863;DHT22;3470;48.738;9.616;2022-12-10T10:10:21;3.80;99.90
6863;DHT22;3470;48.738;9.616;2022-12-10T10:12:47;3.80;99.90
6863;DHT22;3470;48.738;9.616;2022-12-10T10:15:19;3.80;99.90
6863;DHT22;3470;48.738;9.616;2022-12-10T10:17:47;3.70;99.90
6863;DHT22;3470;48.738;9.616;2022-12-10T10:20:15;3.80;99.90
6863;DHT22;3470;48.738;9.616;2022-12-10T10:22:41;3.90;99.90
6863;DHT22;3470;48.738;9.616;2022-12-10T10:25:14;4.00;99.90
6863;DHT22;3470;48.738;9.616;2022-12-10T10:27:40;3.90;99.90
6863;DHT22;3470;48.738;9.616;2022-12-10T10:30:12;3.70;99.90
6863;DHT22;3470;48.738;9.616;2022-12-10T10:35:05;3.60;99.90
6863;DHT22;3470;48.738;9.616;2022-12-10T10:37:31;3.50;99.90
6863;DHT22;3470;48.738;9.616;2022-12-10T10:40:04;3.40;99.90
6863;DHT22;3470;48.738;9.616;2022-12-10T10:42:40;3.50;99.90
6863;DHT22;3470;48.738;9.616;2022-12-10T10:45:42;3.40;99.90
6863;DHT22;3470;48.738;9.616;2022-12-10T10:48:18;3.40;99.90
6863;DHT22;3470;48.738;9.616;2022-12-10T10:50:50;3.60;99.90
6863;DHT22;3470;48.738;9.616;2022-12-10T10:53:31;3.60;99.90
6863;DHT22;3470;48.738;9.616;2022-12-10T10:56:07;3.60;99.90
6863;DHT22;3470;48.738;9.616;2022-12-10T10:58:35;3.50;99.90
6863;DHT22;3470;48.738;9.616;2022-12-10T11:01:06;3.60;99.90
6863;DHT22;3470;48.738;9.616;2022-12-10T11:03:35;3.80;99.90
6863;DHT22;3470;48.738;9.616;2022-12-10T11:06:05;4.00;99.90
6863;DHT22;3470;48.738;9.616;2022-12-10T11:08:31;4.10;99.90
6863;DHT22;3470;48.738;9.616;2022-12-10T11:11:06;4.30;99.90
6863;DHT22;3470;48.738;9.616;2022-12-10T11:13:37;4.20;99.90
6863;DHT22;3470;48.738;9.616;2022-12-10T11:16:19;4.30;99.90
6863;DHT22;3470;48.738;9.616;2022-12-10T11:18:58;4.00;99.90
6863;DHT22;3470;48.738;9.616;2022-12-10T11:21:29;4.00;99.90
6863;DHT22;3470;48.738;9.616;2022-12-10T11:23:56;4.10;99.90
6863;DHT22;3470;48.738;9.616;2022-12-10T11:29:04;3.80;99.90
6863;DHT22;3470;48.738;9.616;2022-12-10T11:32:03;3.60;99.90
6863;DHT22;3470;48.738;9.616;2022-12-10T11:37:24;3.40;99.90
6863;DHT22;3470;48.738;9.616;2022-12-10T11:43:18;3.50;99.90
6863;DHT22;3470;48.738;9.616;2022-12-10T11:49:12;3.50;99.90
6863;DHT22;3470;48.738;9.616;2022-12-10T12:00:00;3.70;99.90
6863;DHT22;3470;48.738;9.616;2022-12-10T12:07:38;3.50;99.90
6863;DHT22;3470;48.738;9.616;2022-12-10T12:12:51;3.40;99.90
6863;DHT22;3470;48.738;9.616;2022-12-10T12:15:31;3.40;99.90
6863;DHT22;3470;48.738;9.616;2022-12-10T12:20:43;3.50;99.90
6863;DHT22;3470;48.738;9.616;2022-12-10T12:23:56;3.70;99.90
6863;DHT22;3470;48.738;9.616;2022-12-10T12:26:08;3.70;99.90
6863;DHT22;3470;48.738;9.616;2022-12-10T12:28:41;3.80;99.90
6863;DHT22;3470;48.738;9.616;2022-12-10T12:31:12;3.90;99.90
6863;DHT22;3470;48.738;9.616;2022-12-10T12:33:47;3.90;99.90
6863;DHT22;3470;48.738;9.616;2022-12-10T12:36:21;3.80;99.90
6863;DHT22;3470;48.738;9.616;2022-12-10T12:39:02;3.80;99.90
6863;DHT22;3470;48.738;9.616;2022-12-10T12:41:45;3.70;99.90
6863;DHT22;3470;48.738;9.616;2022-12-10T12:44:50;3.60;99.90
6863;DHT22;3470;48.738;9.616;2022-12-10T12:47:30;3.50;99.90
6863;DHT22;3470;48.738;9.616;2022-12-10T12:49:59;3.50;99.90
6863;DHT22;3470;48.738;9.616;2022-12-10T12:52:47;3.50;99.90
6863;DHT22;3470;48.738;9.616;2022-12-10T12:55:26;3.50;99.90
6863;DHT22;3470;48.738;9.616;2022-12-10T12:58:14;3.50;99.90
6863;DHT22;3470;48.738;9.616;2022-12-10T13:00:43;3.40;99.90
6863;DHT22;3470;48.738;9.616;2022-12-10T13:05:52;3.40;99.90
6863;DHT22;3470;48.738;9.616;2022-12-10T13:15:51;3.10;99.90
6863;DHT22;3470;48.738;9.616;2022-12-10T13:21:29;3.00;99.90
6863;DHT22;3470;48.738;9.616;2022-12-10T13:23:50;3.00;99.90
6863;DHT22;3470;48.738;9.616;2022-12-10T13:26:28;3.00;99.90
6863;DHT22;3470;48.738;9.616;2022-12-10T13:28:57;2.90;99.90
6863;DHT22;3470;48.738;9.616;2022-12-10T13:31:37;2.80;99.90
6863;DHT22;3470;48.738;9.616;2022-12-10T13:41:29;2.60;99.90
6863;DHT22;3470;48.738;9.616;2022-12-10T13:49:57;2.50;99.90
6863;DHT22;3470;48.738;9.616;2022-12-10T13:55:21;2.40;99.90
6863;DHT22;3470;48.738;9.616;2022-12-10T14:03:46;2.20;99.90
6863;DHT22;3470;48.738;9.616;2022-12-10T14:06:19;2.10;99.90
6863;DHT22;3470;48.738;9.616;2022-12-10T14:08:59;2.10;99.90
6863;DHT22;3470;48.738;9.616;2022-12-10T14:11:40;2.10;99.90
6863;DHT22;3470;48.738;9.616;2022-12-10T14:14:23;2.00;99.90
6863;DHT22;3470;48.738;9.616;2022-12-10T14:16:49;1.90;99.90
6863;DHT22;3470;48.738;9.616;2022-12-10T14:19:16;1.80;99.90
6863;DHT22;3470;48.738;9.616;2022-12-10T14:21:45;1.80;99.90
6863;DHT22;3470;48.738;9.616;2022-12-10T14:24:33;1.80;99.90
6863;DHT22;3470;48.738;9.616;2022-12-10T14:27:23;1.80;99.90
6863;DHT22;3470;48.738;9.616;2022-12-10T14:29:51;1.80;99.90
6863;DHT22;3470;48.738;9.616;2022-12-10T14:32:29;1.70;99.90
6863;DHT22;3470;48.738;9.616;2022-12-10T14:34:56;1.70;99.90
6863;DHT22;3470;48.738;9.616;2022-12-10T14:37:25;1.70;99.90
6863;DHT22;3470;48.738;9.616;2022-12-10T14:39:51;1.70;99.90
6863;DHT22;3470;48.738;9.616;2022-12-10T14:42:17;1.70;99.90
6863;DHT22;3470;48.738;9.616;2022-12-10T14:44:45;1.70;99.90
6863;DHT22;3470;48.738;9.616;2022-12-10T14:47:18;1.70;99.90
6863;DHT22;3470;48.738;9.616;2022-12-10T14:49:47;1.50;99.90
6863;DHT22;3470;48.738;9.616;2022-12-10T14:52:19;1.50;99.90
6863;DHT22;3470;48.738;9.616;2022-12-10T14:54:45;1.40;99.90
6863;DHT22;3470;48.738;9.616;2022-12-10T14:57:35;1.30;99.90
6863;DHT22;3470;48.738;9.616;2022-12-10T15:02:41;1.30;99.90
6863;DHT22;3470;48.738;9.616;2022-12-10T15:05:16;1.20;99.90
6863;DHT22;3470;48.738;9.616;2022-12-10T15:07:52;1.20;99.90
6863;DHT22;3470;48.738;9.616;2022-12-10T15:10:23;1.20;99.90
6863;DHT22;3470;48.738;9.616;2022-12-10T15:12:50;1.20;99.90
6863;DHT22;3470;48.738;9.616;2022-12-10T15:15:24;1.10;99.90
6863;DHT22;3470;48.738;9.616;2022-12-10T15:23:33;1.10;99.90
6863;DHT22;3470;48.738;9.616;2022-12-10T15:26:14;1.10;99.90
6863;DHT22;3470;48.738;9.616;2022-12-10T15:28:42;1.10;99.90
6863;DHT22;3470;48.738;9.616;2022-12-10T15:34:01;1.10;99.90
6863;DHT22;3470;48.738;9.616;2022-12-10T15:36:37;1.00;99.90
6863;DHT22;3470;48.738;9.616;2022-12-10T15:41:55;1.00;99.90
6863;DHT22;3470;48.738;9.616;2022-12-10T15:47:16;0.90;99.90
6863;DHT22;3470;48.738;9.616;2022-12-10T15:49:44;0.80;99.90
6863;DHT22;3470;48.738;9.616;2022-12-10T15:52:24;0.70;99.90
6863;DHT22;3470;48.738;9.616;2022-12-10T15:54:51;0.70;99.90
6863;DHT22;3470;48.738;9.616;2022-12-10T15:57:23;0.70;99.90
6863;DHT22;3470;48.738;9.616;2022-12-10T15:59:54;0.60;99.90
6863;DHT22;3470;48.738;9.616;2022-12-10T16:02:42;0.60;99.90
6863;DHT22;3470;48.738;9.616;2022-12-10T16:05:15;0.70;99.90
6863;DHT22;3470;48.738;9.616;2022-12-10T16:07:42;0.80;99.90
6863;DHT22;3470;48.738;9.616;2022-12-10T16:10:09;0.70;99.90
6863;DHT22;3470;48.738;9.616;2022-12-10T16:12:37;0.80;99.90
6863;DHT22;3470;48.738;9.616;2022-12-10T16:15:04;0.80;99.90
6863;DHT22;3470;48.738;9.616;2022-12-10T16:17:30;0.70;99.90
6863;DHT22;3470;48.738;9.616;2022-12-10T16:19:58;0.70;99.90
6863;DHT22;3470;48.738;9.616;2022-12-10T16:22:24;0.70;99.90
6863;DHT22;3470;48.738;9.616;2022-12-10T16:24:49;0.70;99.90
6863;DHT22;3470;48.738;9.616;2022-12-10T16:27:15;0.70;99.90
6863;DHT22;3470;48.738;9.616;2022-12-10T16:29:42;0.70;99.90
6863;DHT22;3470;48.738;9.616;2022-12-10T16:32:10;0.70;99.90
6863;DHT22;3470;48.738;9.616;2022-12-10T16:34:36;0.80;99.90
6863;DHT22;3470;48.738;9.616;2022-12-10T16:37:02;0.80;99.90
6863;DHT22;3470;48.738;9.616;2022-12-10T16:39:28;0.80;99.90
6863;DHT22;3470;48.738;9.616;2022-12-10T16:41:54;0.80;99.90
6863;DHT22;3470;48.738;9.616;2022-12-10T16:44:20;0.80;99.90
6863;DHT22;3470;48.738;9.616;2022-12-10T16:46:45;0.70;99.90
6863;DHT22;3470;48.738;9.616;2022-12-10T16:49:11;0.70;99.90
6863;DHT22;3470;48.738;9.616;2022-12-10T16:51:37;0.70;99.90
6863;DHT22;3470;48.738;9.616;2022-12-10T16:54:03;0.70;99.90
6863;DHT22;3470;48.738;9.616;2022-12-10T16:56:30;0.70;99.90
6863;DHT22;3470;48.738;9.616;2022-12-10T16:58:56;0.70;99.90
6863;DHT22;3470;48.738;9.616;2022-12-10T17:01:25;0.70;99.90
6863;DHT22;3470;48.738;9.616;2022-12-10T17:03:53;0.80;99.90
6863;DHT22;3470;48.738;9.616;2022-12-10T17:06:19;0.80;99.90
6863;DHT22;3470;48.738;9.616;2022-12-10T17:08:45;0.70;99.90
6863;DHT22;3470;48.738;9.616;2022-12-10T17:11:33;0.70;99.90
6863;DHT22;3470;48.738;9.616;2022-12-10T17:16:43;0.70;99.90
6863;DHT22;3470;48.738;9.616;2022-12-10T17:19:12;0.60;99.90
6863;DHT22;3470;48.738;9.616;2022-12-10T17:21:38;0.60;99.90
6863;DHT22;3470;48.738;9.616;2022-12-10T17:24:03;0.60;99.90
6863;DHT22;3470;48.738;9.616;2022-12-10T17:26:31;0.50;99.90
6863;DHT22;3470;48.738;9.616;2022-12-10T17:29:02;0.50;99.90
6863;DHT22;3470;48.738;9.616;2022-12-10T17:31:28;0.40;99.90
6863;DHT22;3470;48.738;9.616;2022-12-10T17:33:54;0.40;99.90
6863;DHT22;3470;48.738;9.616;2022-12-10T17:36:20;0.40;99.90
6863;DHT22;3470;48.738;9.616;2022-12-10T17:38:46;0.30;99.90
6863;DHT22;3470;48.738;9.616;2022-12-10T17:41:12;0.30;99.90
6863;DHT22;3470;48.738;9.616;2022-12-10T17:43:41;0.30;99.90
6863;DHT22;3470;48.738;9.616;2022-12-10T17:46:09;0.30;99.90
6863;DHT22;3470;48.738;9.616;2022-12-10T17:48:36;0.30;99.90
6863;DHT22;3470;48.738;9.616;2022-12-10T17:51:01;0.30;99.90
6863;DHT22;3470;48.738;9.616;2022-12-10T17:53:27;0.30;99.90
6863;DHT22;3470;48.738;9.616;2022-12-10T17:55:59;0.30;99.90
6863;DHT22;3470;48.738;9.616;2022-12-10T17:58:26;0.20;99.90
6863;DHT22;3470;48.738;9.616;2022-12-10T18:00:52;0.20;99.90
6863;DHT22;3470;48.738;9.616;2022-12-10T18:03:19;0.20;99.90
6863;DHT22;3470;48.738;9.616;2022-12-10T18:05:46;0.20;99.90
6863;DHT22;3470;48.738;9.616;2022-12-10T18:08:13;0.10;99.90
6863;DHT22;3470;48.738;9.616;2022-12-10T18:10:38;0.10;99.90
6863;DHT22;3470;48.738;9.616;2022-12-10T18:13:04;0.10;99.90
6863;DHT22;3470;48.738;9.616;2022-12-10T18:15:30;0.10;99.90
6863;DHT22;3470;48.738;9.616;2022-12-10T18:17:57;0.00;99.90
6863;DHT22;3470;48.738;9.616;2022-12-10T18:20:29;0.00;99.90
6863;DHT22;3470;48.738;9.616;2022-12-10T18:22:55;0.00;99.90
6863;DHT22;3470;48.738;9.616;2022-12-10T18:25:22;-0.10;99.90
6863;DHT22;3470;48.738;9.616;2022-12-10T18:27:48;-0.10;99.90
6863;DHT22;3470;48.738;9.616;2022-12-10T18:30:16;-0.10;99.90